Time;durP1;ratioP1;P1;durP2;ratioP2;P2;SDS_P1;SDS_P2;PMS_P1;PMS_P2;Temp;Humidity;BMP_temperature;BMP_pressure;BME280_temperature;BME280_humidity;BME280_pressure;Samples;Min_cycle;Max_cycle;Signal;HPM_P1;HPM_P2
2022/08/06 00:00:31;;;;;;;9.18;1.60;;;;;;;;;;5037871;28;20025;-76
2022/08/06 00:02:57;;;;;;;26.10;7.60;;;;;;;;;;5033457;28;20033;-76
2022/08/06 00:05:23;;;;;;;15.40;5.30;;;;;;;;;;5034614;28;20033;-75
2022/08/06 00:07:49;;;;;;;7.25;1.73;;;;;;;;;;5033395;28;20025;-76
2022/08/06 00:10:17;;;;;;;8.63;2.00;;;;;;;;;;5033504;28;20037;-76
2022/08/06 00:12:43;;;;;;;9.45;2.10;;;;;;;;;;5034140;28;20022;-75
2022/08/06 00:15:09;;;;;;;4.95;1.45;;;;;;;;;;5034158;28;20372;-76
2022/08/06 00:17:37;;;;;;;8.93;2.40;;;;;;;;;;5032782;28;20100;-75
2022/08/06 00:20:04;;;;;;;8.48;2.53;;;;;;;;;;5033236;28;20021;-75
2022/08/06 00:22:30;;;;;;;12.18;3.10;;;;;;;;;;5033295;28;20065;-76
2022/08/06 00:24:57;;;;;;;9.48;2.88;;;;;;;;;;5032991;28;20115;-75
2022/08/06 00:27:23;;;;;;;18.17;3.28;;;;;;;;;;5032676;28;20033;-75
2022/08/06 00:29:49;;;;;;;6.47;1.70;;;;;;;;;;5032894;28;20482;-76
2022/08/06 00:32:15;;;;;;;12.30;1.90;;;;;;;;;;5015806;28;20056;-74
2022/08/06 00:34:41;;;;;;;5.63;1.33;;;;;;;;;;5034453;28;20470;-75
2022/08/06 00:37:07;;;;;;;6.68;1.65;;;;;;;;;;5033915;28;20032;-75
2022/08/06 00:39:33;;;;;;;13.82;2.88;;;;;;;;;;5033466;28;20394;-76
2022/08/06 00:41:59;;;;;;;11.23;2.70;;;;;;;;;;5033718;28;20029;-76
2022/08/06 00:44:25;;;;;;;7.78;2.40;;;;;;;;;;5015249;28;20025;-74
2022/08/06 00:46:51;;;;;;;8.93;1.80;;;;;;;;;;5033804;28;20060;-74
2022/08/06 00:49:17;;;;;;;8.38;1.50;;;;;;;;;;5033505;28;20434;-75
2022/08/06 00:51:43;;;;;;;7.72;2.28;;;;;;;;;;5034743;28;20441;-76
2022/08/06 00:54:10;;;;;;;16.58;4.40;;;;;;;;;;5042383;28;20089;-76
2022/08/06 00:56:36;;;;;;;15.82;4.97;;;;;;;;;;5030820;28;20005;-73
2022/08/06 00:59:02;;;;;;;21.92;5.65;;;;;;;;;;5054726;28;20033;-72
2022/08/06 01:01:28;;;;;;;25.10;6.35;;;;;;;;;;5055385;28;20027;-73
2022/08/06 01:03:54;;;;;;;18.80;4.50;;;;;;;;;;5055167;28;20036;-74
2022/08/06 01:06:20;;;;;;;11.77;3.28;;;;;;;;;;5053263;28;20475;-76
2022/08/06 01:08:46;;;;;;;9.48;2.95;;;;;;;;;;5034112;28;20041;-76
2022/08/06 01:11:12;;;;;;;11.70;2.10;;;;;;;;;;5033473;28;20465;-75
2022/08/06 01:13:38;;;;;;;24.60;7.93;;;;;;;;;;5032613;28;20438;-76
2022/08/06 01:16:22;;;;;;;27.60;8.93;;;;;;;;;;5038694;28;20073;-74
2022/08/06 01:18:58;;;;;;;18.00;3.55;;;;;;;;;;5039000;28;20032;-75
2022/08/06 01:21:50;;;;;;;44.47;12.00;;;;;;;;;;5034045;28;20104;-75
2022/08/06 01:24:30;;;;;;;21.33;6.43;;;;;;;;;;4987448;28;20047;-76
2022/08/06 01:26:56;;;;;;;11.68;4.18;;;;;;;;;;5033634;28;20028;-75
2022/08/06 01:29:23;;;;;;;9.20;3.05;;;;;;;;;;5034272;28;20405;-73
2022/08/06 01:32:00;;;;;;;17.65;5.85;;;;;;;;;;5033025;28;20034;-76
2022/08/06 01:34:41;;;;;;;28.42;8.18;;;;;;;;;;5032839;28;20025;-74
2022/08/06 01:37:14;;;;;;;30.70;9.02;;;;;;;;;;5033010;28;20471;-74
2022/08/06 01:39:41;;;;;;;13.57;4.38;;;;;;;;;;5030589;28;20100;-74
2022/08/06 01:42:08;;;;;;;11.65;3.08;;;;;;;;;;5032546;28;20025;-74
2022/08/06 01:44:35;;;;;;;19.70;5.30;;;;;;;;;;5032152;28;20033;-75
2022/08/06 01:47:06;;;;;;;20.08;5.22;;;;;;;;;;5013775;28;20036;-73
2022/08/06 01:49:34;;;;;;;21.80;6.70;;;;;;;;;;5032046;28;20025;-75
2022/08/06 01:52:01;;;;;;;30.85;10.40;;;;;;;;;;5032151;28;20048;-75
2022/08/06 01:54:28;;;;;;;34.72;10.10;;;;;;;;;;5032606;28;20037;-74
2022/08/06 01:56:55;;;;;;;19.55;6.13;;;;;;;;;;5031416;28;20052;-75
2022/08/06 01:59:22;;;;;;;20.80;5.05;;;;;;;;;;5032255;28;20363;-75
2022/08/06 02:01:50;;;;;;;17.15;5.20;;;;;;;;;;5032206;28;20026;-75
2022/08/06 02:04:17;;;;;;;19.25;5.50;;;;;;;;;;5032272;28;20313;-76
2022/08/06 02:06:44;;;;;;;26.00;7.10;;;;;;;;;;5031724;28;20084;-74
2022/08/06 02:09:13;;;;;;;31.30;8.35;;;;;;;;;;5031954;28;20081;-75
2022/08/06 02:11:40;;;;;;;28.00;7.78;;;;;;;;;;5018695;28;20041;-73
2022/08/06 02:14:07;;;;;;;15.45;5.38;;;;;;;;;;5047738;28;20486;-74
2022/08/06 02:16:35;;;;;;;16.95;5.00;;;;;;;;;;5049024;28;20036;-75
2022/08/06 02:19:03;;;;;;;8.60;2.83;;;;;;;;;;5017590;28;20026;-76
2022/08/06 02:21:29;;;;;;;9.05;2.30;;;;;;;;;;5035049;28;20025;-75
2022/08/06 02:23:56;;;;;;;7.07;1.80;;;;;;;;;;5017393;28;20383;-74
2022/08/06 02:26:24;;;;;;;11.80;2.45;;;;;;;;;;5016029;28;20032;-73
2022/08/06 02:28:51;;;;;;;15.40;5.30;;;;;;;;;;5035124;28;20053;-77
2022/08/06 02:31:17;;;;;;;28.13;8.27;;;;;;;;;;5037006;28;20068;-76
2022/08/06 02:33:43;;;;;;;24.48;7.68;;;;;;;;;;5035063;28;20067;-76
2022/08/06 02:36:20;;;;;;;18.08;4.15;;;;;;;;;;5034939;28;20542;-75
2022/08/06 02:38:52;;;;;;;14.25;4.95;;;;;;;;;;5034823;28;20022;-76
2022/08/06 02:41:24;;;;;;;18.23;5.38;;;;;;;;;;5034636;28;20453;-76
2022/08/06 02:43:51;;;;;;;17.42;5.00;;;;;;;;;;5035312;28;20446;-74
2022/08/06 02:46:28;;;;;;;19.75;5.80;;;;;;;;;;5034690;28;20081;-77
2022/08/06 02:49:00;;;;;;;22.92;5.65;;;;;;;;;;5035155;28;20061;-75
2022/08/06 02:51:28;;;;;;;20.92;5.70;;;;;;;;;;5035320;28;20435;-75
2022/08/06 02:53:58;;;;;;;7.78;2.25;;;;;;;;;;5040403;28;20025;-74
2022/08/06 02:56:25;;;;;;;6.85;1.67;;;;;;;;;;5048679;28;20029;-73
2022/08/06 02:58:52;;;;;;;26.85;6.18;;;;;;;;;;5058145;28;20072;-72
2022/08/06 03:01:20;;;;;;;12.98;2.85;;;;;;;;;;5048358;28;20096;-74
2022/08/06 03:03:48;;;;;;;9.43;3.08;;;;;;;;;;5017098;28;20052;-75
2022/08/06 03:06:16;;;;;;;49.20;14.75;;;;;;;;;;5035007;28;20236;-75
2022/08/06 03:08:42;;;;;;;52.92;14.93;;;;;;;;;;5042480;28;20024;-80
2022/08/06 03:11:09;;;;;;;32.97;10.88;;;;;;;;;;5038837;28;20033;-76
2022/08/06 03:13:35;;;;;;;20.05;6.15;;;;;;;;;;5035456;28;20490;-76
2022/08/06 03:16:01;;;;;;;14.15;4.43;;;;;;;;;;5039764;28;20033;-75
2022/08/06 03:18:28;;;;;;;67.00;21.60;;;;;;;;;;5033933;28;20041;-76
2022/08/06 03:20:55;;;;;;;30.42;10.73;;;;;;;;;;5041561;28;20480;-76
2022/08/06 03:23:22;;;;;;;26.98;7.85;;;;;;;;;;5035992;28;20032;-76
2022/08/06 03:25:48;;;;;;;33.63;8.45;;;;;;;;;;5034240;28;20036;-75
2022/08/06 03:28:15;;;;;;;31.52;10.48;;;;;;;;;;5034609;28;20501;-75
2022/08/06 03:30:41;;;;;;;23.90;6.43;;;;;;;;;;5034055;28;20292;-75
2022/08/06 03:33:12;;;;;;;21.98;6.40;;;;;;;;;;5033848;28;20104;-75
2022/08/06 03:35:39;;;;;;;15.93;5.70;;;;;;;;;;5033404;28;20033;-76
2022/08/06 03:38:07;;;;;;;23.13;6.07;;;;;;;;;;5033616;28;20120;-76
2022/08/06 03:40:34;;;;;;;32.00;10.00;;;;;;;;;;5033736;28;20427;-74
2022/08/06 03:43:00;;;;;;;31.27;10.05;;;;;;;;;;5033711;28;20033;-74
2022/08/06 03:45:26;;;;;;;21.80;7.65;;;;;;;;;;5033732;28;20026;-74
2022/08/06 03:47:53;;;;;;;18.42;5.35;;;;;;;;;;5033188;28;20382;-74
2022/08/06 03:50:22;;;;;;;11.52;3.90;;;;;;;;;;5033540;28;20025;-76
2022/08/06 03:53:04;;;;;;;30.35;7.47;;;;;;;;;;5033799;28;20029;-75
2022/08/06 03:55:32;;;;;;;11.35;4.05;;;;;;;;;;5015661;28;20105;-75
2022/08/06 03:58:00;;;;;;;20.02;6.50;;;;;;;;;;5035054;22;20076;-71
2022/08/06 04:00:27;;;;;;;32.13;8.93;;;;;;;;;;5054668;28;20370;-70
2022/08/06 04:02:54;;;;;;;14.40;4.43;;;;;;;;;;5052761;28;20120;-71
2022/08/06 04:05:22;;;;;;;20.45;6.55;;;;;;;;;;5036693;28;20111;-70
2022/08/06 04:07:49;;;;;;;15.73;4.15;;;;;;;;;;5034749;28;20025;-71
2022/08/06 04:10:16;;;;;;;12.73;4.82;;;;;;;;;;5053112;28;20424;-70
2022/08/06 04:12:43;;;;;;;39.03;11.60;;;;;;;;;;5052461;28;20033;-70
2022/08/06 04:15:10;;;;;;;23.20;6.75;;;;;;;;;;5052436;28;20025;-70
2022/08/06 04:17:37;;;;;;;33.20;9.30;;;;;;;;;;5052503;28;20029;-70
2022/08/06 04:20:03;;;;;;;16.38;4.78;;;;;;;;;;5052480;28;20024;-72
2022/08/06 04:22:29;;;;;;;19.27;5.78;;;;;;;;;;5052148;28;20064;-72
2022/08/06 04:24:55;;;;;;;9.35;3.70;;;;;;;;;;5052128;28;20061;-71
2022/08/06 04:27:22;;;;;;;17.42;4.22;;;;;;;;;;5052121;28;20107;-70
2022/08/06 04:29:48;;;;;;;11.40;2.42;;;;;;;;;;5052177;28;20025;-71
2022/08/06 04:32:15;;;;;;;10.63;3.63;;;;;;;;;;5052089;28;20151;-71
2022/08/06 04:34:42;;;;;;;9.88;3.85;;;;;;;;;;5052027;28;20411;-71
2022/08/06 04:37:08;;;;;;;9.65;3.15;;;;;;;;;;5051811;28;20027;-71
2022/08/06 04:39:34;;;;;;;8.52;3.30;;;;;;;;;;5051392;28;20021;-71
2022/08/06 04:42:01;;;;;;;12.13;4.43;;;;;;;;;;5052047;28;20021;-72
2022/08/06 04:44:28;;;;;;;7.80;3.13;;;;;;;;;;5052170;28;20493;-71
2022/08/06 04:46:54;;;;;;;24.50;8.07;;;;;;;;;;5052079;28;20021;-71
2022/08/06 04:49:20;;;;;;;7.78;3.22;;;;;;;;;;5052340;28;20024;-71
2022/08/06 04:51:47;;;;;;;7.22;2.67;;;;;;;;;;5052133;28;20371;-71
2022/08/06 04:54:13;;;;;;;8.13;2.50;;;;;;;;;;5052694;28;20082;-71
2022/08/06 04:56:40;;;;;;;9.07;1.88;;;;;;;;;;5054661;28;20052;-71
2022/08/06 04:59:06;;;;;;;20.05;4.82;;;;;;;;;;5034056;28;20032;-71
2022/08/06 05:01:32;;;;;;;11.10;3.78;;;;;;;;;;5051879;28;20021;-71
2022/08/06 05:03:58;;;;;;;8.32;2.58;;;;;;;;;;5052316;28;20401;-71
2022/08/06 05:06:26;;;;;;;9.52;3.10;;;;;;;;;;5053282;28;20037;-71
2022/08/06 05:08:55;;;;;;;17.45;5.53;;;;;;;;;;5055593;28;20029;-71
2022/08/06 05:11:29;;;;;;;20.85;5.25;;;;;;;;;;5052464;28;20033;-71
2022/08/06 05:13:58;;;;;;;10.73;3.40;;;;;;;;;;5052297;28;20045;-72
2022/08/06 05:16:25;;;;;;;11.52;2.67;;;;;;;;;;5051385;28;20067;-71
2022/08/06 05:18:52;;;;;;;8.57;2.20;;;;;;;;;;5051471;28;20025;-71
2022/08/06 05:21:21;;;;;;;7.25;1.50;;;;;;;;;;5051385;28;20036;-71
2022/08/06 05:23:48;;;;;;;9.10;2.47;;;;;;;;;;5051518;28;20492;-71
2022/08/06 05:26:14;;;;;;;9.77;3.88;;;;;;;;;;5051533;28;20060;-71
2022/08/06 05:28:40;;;;;;;13.05;4.53;;;;;;;;;;5051902;28;20045;-72
2022/08/06 05:31:07;;;;;;;7.15;2.00;;;;;;;;;;5051963;28;20477;-73
2022/08/06 05:33:36;;;;;;;7.15;2.47;;;;;;;;;;5051551;28;20068;-70
2022/08/06 05:36:02;;;;;;;9.52;2.78;;;;;;;;;;5052085;28;20070;-71
2022/08/06 05:38:29;;;;;;;6.95;1.70;;;;;;;;;;5051238;28;20045;-71
2022/08/06 05:40:55;;;;;;;8.88;2.03;;;;;;;;;;5051488;28;20032;-72
2022/08/06 05:43:22;;;;;;;5.93;2.05;;;;;;;;;;5051425;28;20386;-71
2022/08/06 05:45:48;;;;;;;9.85;2.17;;;;;;;;;;5050964;28;20125;-71
2022/08/06 05:48:16;;;;;;;7.15;1.77;;;;;;;;;;5051230;28;20075;-71
2022/08/06 05:50:48;;;;;;;9.55;2.17;;;;;;;;;;5052813;28;20534;-72
2022/08/06 05:53:21;;;;;;;9.93;4.13;;;;;;;;;;5055484;28;20029;-71
2022/08/06 05:55:51;;;;;;;11.02;3.92;;;;;;;;;;5054940;28;20029;-71
2022/08/06 05:58:24;;;;;;;8.80;2.20;;;;;;;;;;5054676;28;20083;-71
2022/08/06 06:00:51;;;;;;;7.18;2.55;;;;;;;;;;5054856;28;20061;-71
2022/08/06 06:03:18;;;;;;;8.15;1.83;;;;;;;;;;5055041;28;20428;-71
2022/08/06 06:05:44;;;;;;;7.30;1.63;;;;;;;;;;5055078;28;20032;-72
2022/08/06 06:08:10;;;;;;;8.23;1.70;;;;;;;;;;5054818;28;20102;-71
2022/08/06 06:10:38;;;;;;;6.10;1.95;;;;;;;;;;5036830;28;20029;-71
2022/08/06 06:13:05;;;;;;;5.80;2.25;;;;;;;;;;5055128;28;20054;-71
2022/08/06 06:15:31;;;;;;;14.02;2.22;;;;;;;;;;5054448;28;20437;-72
2022/08/06 06:18:00;;;;;;;12.25;1.90;;;;;;;;;;5054499;28;20017;-70
2022/08/06 06:20:29;;;;;;;5.00;1.70;;;;;;;;;;5054899;28;20036;-71
2022/08/06 06:22:56;;;;;;;6.07;1.63;;;;;;;;;;5055009;28;20028;-71
2022/08/06 06:25:25;;;;;;;5.00;1.50;;;;;;;;;;5055099;28;20023;-71
2022/08/06 06:28:00;;;;;;;4.90;1.10;;;;;;;;;;5054822;28;20029;-72
2022/08/06 06:30:26;;;;;;;;;;;;;;;;;;5055362;28;20024;-70
2022/08/06 06:33:09;;;;;;;11.35;2.05;;;;;;;;;;5054915;28;19905;-70
2022/08/06 06:35:46;;;;;;;4.82;1.60;;;;;;;;;;5054226;28;20025;-71
2022/08/06 06:38:12;;;;;;;9.98;1.50;;;;;;;;;;5054604;28;20025;-71
2022/08/06 06:40:57;;;;;;;5.47;1.23;;;;;;;;;;5054248;28;20331;-71
2022/08/06 06:43:28;;;;;;;5.72;1.50;;;;;;;;;;5054699;28;20028;-71
2022/08/06 06:45:53;;;;;;;7.85;1.15;;;;;;;;;;5054143;28;20053;-70
2022/08/06 06:48:21;;;;;;;6.03;1.25;;;;;;;;;;5054398;28;20033;-70
2022/08/06 06:50:53;;;;;;;5.30;1.48;;;;;;;;;;5054213;28;20033;-70
2022/08/06 06:53:20;;;;;;;7.82;1.10;;;;;;;;;;5054207;28;20025;-71
2022/08/06 06:55:47;;;;;;;6.65;1.15;;;;;;;;;;5053843;28;20052;-70
2022/08/06 06:58:22;;;;;;;5.00;1.08;;;;;;;;;;5053902;28;20029;-70
2022/08/06 07:00:48;;;;;;;7.93;1.30;;;;;;;;;;5054707;28;20037;-72
2022/08/06 07:03:17;;;;;;;2.95;1.05;;;;;;;;;;5053787;28;20078;-71
2022/08/06 07:05:45;;;;;;;10.85;1.75;;;;;;;;;;5055153;28;20029;-72
2022/08/06 07:08:11;;;;;;;6.75;1.45;;;;;;;;;;5055538;28;20071;-76
2022/08/06 07:10:39;;;;;;;4.78;1.25;;;;;;;;;;5056932;28;20033;-73
2022/08/06 07:13:06;;;;;;;6.05;1.40;;;;;;;;;;5055498;28;20047;-74
2022/08/06 07:15:32;;;;;;;6.63;1.52;;;;;;;;;;5055481;28;20451;-74
2022/08/06 07:17:59;;;;;;;6.65;1.40;;;;;;;;;;5055234;28;20021;-73
2022/08/06 07:20:30;;;;;;;12.38;1.50;;;;;;;;;;5055277;28;20079;-74
2022/08/06 07:22:57;;;;;;;9.07;1.30;;;;;;;;;;5056561;28;20033;-77
2022/08/06 07:25:23;;;;;;;14.15;2.28;;;;;;;;;;5038194;28;20036;-70
2022/08/06 07:27:50;;;;;;;2.45;1.15;;;;;;;;;;5054060;28;20375;-76
2022/08/06 07:30:18;;;;;;;6.95;1.45;;;;;;;;;;5053918;28;20086;-70
2022/08/06 07:32:45;;;;;;;10.77;2.78;;;;;;;;;;5053420;28;20048;-71
2022/08/06 07:35:12;;;;;;;8.93;1.85;;;;;;;;;;5053109;28;20025;-70
2022/08/06 07:37:40;;;;;;;8.45;2.70;;;;;;;;;;5052844;28;20022;-69
2022/08/06 07:40:07;;;;;;;16.58;4.80;;;;;;;;;;5053042;28;20142;-72
2022/08/06 07:42:35;;;;;;;13.32;5.30;;;;;;;;;;5053079;28;20032;-72
2022/08/06 07:45:02;;;;;;;9.80;3.38;;;;;;;;;;5053713;28;20488;-72
2022/08/06 07:47:36;;;;;;;10.88;1.80;;;;;;;;;;5053116;28;20091;-73
2022/08/06 07:50:02;;;;;;;6.38;1.67;;;;;;;;;;5053413;28;20076;-72
2022/08/06 07:52:29;;;;;;;10.35;3.65;;;;;;;;;;5053336;28;20113;-71
2022/08/06 07:54:55;;;;;;;12.75;4.30;;;;;;;;;;5053023;28;20069;-71
2022/08/06 07:57:22;;;;;;;9.95;2.45;;;;;;;;;;5053010;28;20029;-72
2022/08/06 07:59:48;;;;;;;10.70;3.33;;;;;;;;;;5053315;28;20029;-71
2022/08/06 08:02:15;;;;;;;14.02;3.72;;;;;;;;;;5053107;28;20495;-71
2022/08/06 08:07:26;;;;;;;20.10;6.10;;;;;;;;;;5052581;28;20074;-71
2022/08/06 08:09:52;;;;;;;4.35;1.73;;;;;;;;;;5034994;28;20103;-72
2022/08/06 08:12:19;;;;;;;6.10;1.27;;;;;;;;;;5052250;28;20025;-71
2022/08/06 08:14:46;;;;;;;4.18;0.95;;;;;;;;;;5051444;28;20087;-71
2022/08/06 08:17:12;;;;;;;5.32;1.27;;;;;;;;;;5051788;28;20039;-71
2022/08/06 08:19:38;;;;;;;6.05;2.25;;;;;;;;;;5052293;28;20029;-70
2022/08/06 08:22:10;;;;;;;8.85;2.67;;;;;;;;;;5052812;28;20095;-72
2022/08/06 08:24:37;;;;;;;14.27;3.45;;;;;;;;;;5052811;28;20029;-73
2022/08/06 08:27:03;;;;;;;11.52;2.53;;;;;;;;;;5052760;28;20031;-72
2022/08/06 08:29:29;;;;;;;4.25;1.88;;;;;;;;;;5053332;28;20085;-70
2022/08/06 08:31:56;;;;;;;4.60;1.42;;;;;;;;;;5052211;28;20600;-70
2022/08/06 08:34:22;;;;;;;12.57;3.22;;;;;;;;;;5053647;28;20096;-72
2022/08/06 08:36:48;;;;;;;5.68;1.42;;;;;;;;;;5052108;28;20536;-71
2022/08/06 08:39:17;;;;;;;12.77;3.42;;;;;;;;;;5054309;28;20028;-70
2022/08/06 08:41:51;;;;;;;9.75;2.40;;;;;;;;;;5052999;28;20068;-72
2022/08/06 08:44:24;;;;;;;10.45;5.53;;;;;;;;;;5052487;28;20059;-72
2022/08/06 08:46:51;;;;;;;8.38;2.35;;;;;;;;;;5053272;28;20024;-72
2022/08/06 08:49:19;;;;;;;6.28;1.50;;;;;;;;;;5054889;28;20025;-72
2022/08/06 08:51:46;;;;;;;5.65;1.00;;;;;;;;;;5054899;28;20036;-73
2022/08/06 08:54:14;;;;;;;5.30;1.17;;;;;;;;;;5035842;28;20025;-72
2022/08/06 08:56:40;;;;;;;6.55;1.92;;;;;;;;;;5056594;28;20024;-74
2022/08/06 08:59:06;;;;;;;13.63;1.75;;;;;;;;;;5052532;28;20510;-75
2022/08/06 09:01:34;;;;;;;4.88;1.70;;;;;;;;;;5055132;28;20025;-74
2022/08/06 09:04:04;;;;;;;10.48;1.58;;;;;;;;;;5036171;28;20104;-72
2022/08/06 09:06:32;;;;;;;6.60;1.05;;;;;;;;;;5057971;28;20071;-72
2022/08/06 09:09:03;;;;;;;3.10;0.77;;;;;;;;;;5062105;28;20096;-74
2022/08/06 09:11:30;;;;;;;8.48;2.55;;;;;;;;;;5055186;28;20033;-72
2022/08/06 09:13:56;;;;;;;6.03;1.20;;;;;;;;;;5055204;28;20037;-73
2022/08/06 09:16:22;;;;;;;14.85;2.13;;;;;;;;;;5051665;28;20123;-73
2022/08/06 09:18:48;;;;;;;6.32;1.38;;;;;;;;;;5051932;28;20025;-72
2022/08/06 09:21:14;;;;;;;7.45;1.90;;;;;;;;;;5051113;28;20029;-71
2022/08/06 09:23:40;;;;;;;8.65;1.50;;;;;;;;;;5051989;28;20497;-70
2022/08/06 09:26:06;;;;;;;6.80;1.45;;;;;;;;;;5054086;28;20126;-70
2022/08/06 09:28:37;;;;;;;8.18;2.70;;;;;;;;;;5055961;28;20095;-70
2022/08/06 09:31:13;;;;;;;5.40;1.08;;;;;;;;;;5055267;28;20028;-70
2022/08/06 09:33:41;;;;;;;3.85;1.50;;;;;;;;;;5055865;28;20098;-72
2022/08/06 09:36:07;;;;;;;8.70;1.77;;;;;;;;;;5057504;28;20050;-72
2022/08/06 09:38:50;;;;;;;10.93;2.60;;;;;;;;;;5055934;28;20021;-73
2022/08/06 09:41:17;;;;;;;9.75;3.35;;;;;;;;;;5057009;28;20389;-71
2022/08/06 09:43:46;;;;;;;7.07;1.17;;;;;;;;;;5056619;28;20029;-71
2022/08/06 09:46:12;;;;;;;5.55;1.40;;;;;;;;;;5057007;28;20531;-71
2022/08/06 09:48:55;;;;;;;10.82;2.20;;;;;;;;;;5055378;28;20035;-71
2022/08/06 09:51:22;;;;;;;7.18;1.23;;;;;;;;;;5055420;28;20069;-70
2022/08/06 09:53:55;;;;;;;6.55;1.45;;;;;;;;;;5055127;28;20355;-72
2022/08/06 09:56:21;;;;;;;8.00;1.38;;;;;;;;;;5054705;28;20025;-72
2022/08/06 09:58:47;;;;;;;5.05;1.40;;;;;;;;;;5055034;28;20500;-71
2022/08/06 10:01:13;;;;;;;4.25;1.10;;;;;;;;;;5054687;28;20025;-71
2022/08/06 10:03:40;;;;;;;6.22;1.65;;;;;;;;;;5055562;28;20040;-72
2022/08/06 10:06:07;;;;;;;6.65;1.23;;;;;;;;;;5054925;28;20021;-71
2022/08/06 10:08:33;;;;;;;11.20;1.67;;;;;;;;;;5055079;28;20025;-71
2022/08/06 10:11:02;;;;;;;6.75;2.00;;;;;;;;;;5055275;28;20098;-71
2022/08/06 10:13:28;;;;;;;5.25;1.77;;;;;;;;;;5057727;28;20021;-71
2022/08/06 10:15:56;;;;;;;7.03;1.60;;;;;;;;;;5054490;28;20029;-70
2022/08/06 10:18:31;;;;;;;6.80;1.20;;;;;;;;;;5054453;28;20075;-71
2022/08/06 10:21:02;;;;;;;7.25;1.80;;;;;;;;;;5054404;28;20025;-72
2022/08/06 10:23:29;;;;;;;5.35;1.58;;;;;;;;;;5054637;28;20021;-72
2022/08/06 10:25:55;;;;;;;12.63;7.32;;;;;;;;;;5054293;28;20068;-72
2022/08/06 10:28:24;;;;;;;21.15;12.15;;;;;;;;;;5036654;28;20048;-70
2022/08/06 10:30:51;;;;;;;13.75;3.10;;;;;;;;;;5054178;28;20054;-70
2022/08/06 10:33:17;;;;;;;6.22;2.30;;;;;;;;;;5054177;28;20033;-70
2022/08/06 10:35:44;;;;;;;9.50;3.35;;;;;;;;;;5054349;28;20047;-70
2022/08/06 10:38:12;;;;;;;5.38;2.60;;;;;;;;;;5052341;28;20025;-72
2022/08/06 10:40:39;;;;;;;13.93;3.97;;;;;;;;;;5053992;28;20040;-71
2022/08/06 10:43:06;;;;;;;4.28;2.40;;;;;;;;;;5053862;28;20429;-70
2022/08/06 10:45:33;;;;;;;10.27;3.13;;;;;;;;;;5053849;28;20047;-72
2022/08/06 10:47:59;;;;;;;7.03;2.83;;;;;;;;;;5054643;28;20033;-71
2022/08/06 10:50:25;;;;;;;8.70;3.95;;;;;;;;;;5053671;28;20060;-72
2022/08/06 10:52:51;;;;;;;6.78;3.42;;;;;;;;;;5053682;28;20056;-71
2022/08/06 10:55:17;;;;;;;8.90;4.30;;;;;;;;;;5053965;28;20095;-71
2022/08/06 10:57:43;;;;;;;9.65;4.10;;;;;;;;;;5053936;28;20466;-71
2022/08/06 11:00:10;;;;;;;12.18;4.03;;;;;;;;;;5053710;28;20040;-72
2022/08/06 11:02:54;;;;;;;10.18;4.47;;;;;;;;;;5053410;28;20717;-72
2022/08/06 11:05:22;;;;;;;6.95;4.20;;;;;;;;;;5053503;28;20036;-72
2022/08/06 11:07:59;;;;;;;7.90;4.72;;;;;;;;;;5053964;28;20040;-71
2022/08/06 11:10:25;;;;;;;9.90;4.28;;;;;;;;;;5054257;28;20033;-71
2022/08/06 11:12:51;;;;;;;8.30;3.45;;;;;;;;;;5054138;28;20092;-72
2022/08/06 11:15:18;;;;;;;5.82;3.50;;;;;;;;;;5053382;28;20532;-72
2022/08/06 11:17:48;;;;;;;9.27;3.95;;;;;;;;;;5053664;28;20515;-71
2022/08/06 11:20:32;;;;;;;8.98;3.70;;;;;;;;;;5053395;28;20025;-70
2022/08/06 11:23:02;;;;;;;8.57;3.83;;;;;;;;;;5053261;28;20451;-71
2022/08/06 11:25:40;;;;;;;11.50;4.20;;;;;;;;;;5053083;28;20267;-71
2022/08/06 11:28:07;;;;;;;12.07;5.30;;;;;;;;;;5055439;28;20171;-73
2022/08/06 11:30:43;;;;;;;7.80;4.82;;;;;;;;;;5053574;28;20079;-72
2022/08/06 11:33:10;;;;;;;11.50;5.28;;;;;;;;;;5055951;28;20378;-72
2022/08/06 11:35:36;;;;;;;12.57;5.13;;;;;;;;;;5035141;28;20021;-71
2022/08/06 11:38:02;;;;;;;17.60;6.82;;;;;;;;;;5053039;28;20036;-71
2022/08/06 11:40:29;;;;;;;8.38;4.70;;;;;;;;;;5052994;28;20363;-72
2022/08/06 11:42:55;;;;;;;9.52;3.97;;;;;;;;;;5052808;28;20055;-71
2022/08/06 11:45:21;;;;;;;8.18;4.15;;;;;;;;;;5053079;28;20477;-70
2022/08/06 11:48:06;;;;;;;8.68;3.83;;;;;;;;;;5052675;28;20062;-70
2022/08/06 11:50:32;;;;;;;9.00;3.72;;;;;;;;;;5052925;28;20167;-72
2022/08/06 11:52:59;;;;;;;11.35;4.97;;;;;;;;;;5052804;28;20048;-72
2022/08/06 11:55:25;;;;;;;7.45;3.78;;;;;;;;;;5052725;28;20117;-72
2022/08/06 11:58:12;;;;;;;12.70;5.65;;;;;;;;;;5052889;28;20040;-71
2022/08/06 12:00:55;;;;;;;8.70;4.47;;;;;;;;;;5054060;28;20029;-71
2022/08/06 12:03:37;;;;;;;7.63;3.55;;;;;;;;;;5054137;28;20029;-70
2022/08/06 12:06:18;;;;;;;6.07;3.38;;;;;;;;;;5053131;28;20490;-71
2022/08/06 12:09:04;;;;;;;8.73;3.80;;;;;;;;;;5052952;28;20051;-71
2022/08/06 12:11:30;;;;;;;7.68;4.05;;;;;;;;;;5052967;28;20082;-71
2022/08/06 12:13:56;;;;;;;11.07;3.83;;;;;;;;;;5052887;28;20025;-70
2022/08/06 12:16:28;;;;;;;6.75;3.95;;;;;;;;;;5053200;28;20454;-71
2022/08/06 12:18:54;;;;;;;11.75;4.68;;;;;;;;;;5055455;28;20029;-73
2022/08/06 12:21:21;;;;;;;5.35;3.90;;;;;;;;;;5053279;28;20331;-73
2022/08/06 12:23:49;;;;;;;7.45;4.43;;;;;;;;;;5052888;28;20021;-71
2022/08/06 12:26:16;;;;;;;12.80;6.50;;;;;;;;;;5034166;28;20029;-72
2022/08/06 12:28:42;;;;;;;11.63;4.93;;;;;;;;;;5053193;28;20490;-72
2022/08/06 12:31:08;;;;;;;7.53;4.50;;;;;;;;;;5035497;28;20021;-72
2022/08/06 12:33:41;;;;;;;8.68;5.32;;;;;;;;;;5053887;28;20032;-71
2022/08/06 12:36:07;;;;;;;7.35;4.13;;;;;;;;;;5053017;28;20028;-71
2022/08/06 12:38:34;;;;;;;13.32;6.43;;;;;;;;;;5054953;28;20451;-71
2022/08/06 12:41:00;;;;;;;6.70;4.40;;;;;;;;;;5052182;28;20043;-71
2022/08/06 12:43:27;;;;;;;9.70;4.40;;;;;;;;;;5052707;28;20362;-72
2022/08/06 12:45:56;;;;;;;9.07;5.13;;;;;;;;;;5051997;28;20035;-72
2022/08/06 12:48:23;;;;;;;10.07;4.75;;;;;;;;;;5051796;28;20025;-71
2022/08/06 12:50:49;;;;;;;10.32;5.18;;;;;;;;;;5051675;28;20024;-71
2022/08/06 12:53:18;;;;;;;11.23;6.32;;;;;;;;;;5051678;28;20029;-71
2022/08/06 12:55:48;;;;;;;8.05;4.55;;;;;;;;;;5051569;28;20021;-71
2022/08/06 12:58:15;;;;;;;10.27;4.45;;;;;;;;;;5051636;28;20025;-70
2022/08/06 13:00:42;;;;;;;9.45;4.78;;;;;;;;;;5051759;28;20036;-76
2022/08/06 13:03:08;;;;;;;10.30;5.10;;;;;;;;;;5052842;28;20496;-73
2022/08/06 13:05:35;;;;;;;11.02;4.70;;;;;;;;;;5051471;28;20111;-71
2022/08/06 13:08:01;;;;;;;9.85;4.20;;;;;;;;;;5054900;28;20024;-71
2022/08/06 13:10:28;;;;;;;13.68;5.18;;;;;;;;;;5043680;28;20036;-70
2022/08/06 13:13:04;;;;;;;6.82;4.55;;;;;;;;;;5035769;28;20017;-70
2022/08/06 13:15:31;;;;;;;7.05;4.82;;;;;;;;;;5051416;28;20368;-71
2022/08/06 13:18:06;;;;;;;8.77;4.97;;;;;;;;;;5052795;28;20022;-71
2022/08/06 13:20:36;;;;;;;9.02;4.82;;;;;;;;;;5055210;28;20021;-72
2022/08/06 13:23:02;;;;;;;9.98;5.63;;;;;;;;;;5053989;28;20029;-71
2022/08/06 13:25:28;;;;;;;10.63;4.90;;;;;;;;;;5056452;28;20087;-73
2022/08/06 13:28:15;;;;;;;10.80;4.70;;;;;;;;;;5042785;28;20041;-73
2022/08/06 13:30:41;;;;;;;9.95;4.30;;;;;;;;;;5059190;28;20028;-71
2022/08/06 13:33:12;;;;;;;6.07;4.53;;;;;;;;;;5060195;28;20052;-72
2022/08/06 13:35:38;;;;;;;9.27;5.13;;;;;;;;;;5061132;28;20021;-73
2022/08/06 13:38:04;;;;;;;9.00;5.40;;;;;;;;;;5063646;28;20053;-73
2022/08/06 13:40:43;;;;;;;6.40;4.38;;;;;;;;;;5059311;28;20029;-73
2022/08/06 13:43:10;;;;;;;9.88;5.65;;;;;;;;;;5055385;28;20090;-73
2022/08/06 13:45:36;;;;;;;7.53;5.07;;;;;;;;;;5053089;28;20178;-72
2022/08/06 13:48:03;;;;;;;6.95;4.70;;;;;;;;;;5052065;28;20387;-72
2022/08/06 13:50:29;;;;;;;12.75;5.03;;;;;;;;;;5050224;28;20017;-71
2022/08/06 13:52:55;;;;;;;11.48;6.63;;;;;;;;;;5051202;28;20094;-72
2022/08/06 13:55:25;;;;;;;12.60;6.00;;;;;;;;;;5051338;28;20021;-73
2022/08/06 13:57:51;;;;;;;11.63;6.43;;;;;;;;;;5052973;28;20033;-74
2022/08/06 14:00:17;;;;;;;9.80;4.75;;;;;;;;;;5053578;28;20035;-76
2022/08/06 14:02:43;;;;;;;11.38;5.60;;;;;;;;;;5059450;28;20043;-74
2022/08/06 14:05:09;;;;;;;8.30;4.88;;;;;;;;;;5051407;28;20025;-73
2022/08/06 14:07:35;;;;;;;9.77;5.80;;;;;;;;;;5051317;28;20059;-74
2022/08/06 14:10:01;;;;;;;8.70;5.57;;;;;;;;;;5051525;28;20033;-72
2022/08/06 14:12:27;;;;;;;9.88;5.63;;;;;;;;;;5053942;28;20438;-71
2022/08/06 14:14:53;;;;;;;10.30;6.45;;;;;;;;;;5055601;28;20082;-72
2022/08/06 14:17:20;;;;;;;8.23;5.30;;;;;;;;;;5054157;28;20462;-72
2022/08/06 14:19:46;;;;;;;8.40;5.03;;;;;;;;;;5054809;28;20040;-71
2022/08/06 14:22:12;;;;;;;8.68;5.53;;;;;;;;;;5055722;28;20374;-73
2022/08/06 14:24:39;;;;;;;10.98;5.80;;;;;;;;;;5055339;28;20029;-72
2022/08/06 14:27:05;;;;;;;11.40;5.75;;;;;;;;;;5054897;28;20028;-72
2022/08/06 14:29:31;;;;;;;13.52;6.07;;;;;;;;;;5056420;28;20032;-72
2022/08/06 14:31:57;;;;;;;11.00;5.63;;;;;;;;;;5038306;28;20032;-71
2022/08/06 14:34:23;;;;;;;11.38;6.13;;;;;;;;;;5056796;28;20025;-73
2022/08/06 14:36:48;;;;;;;14.57;7.32;;;;;;;;;;5055127;28;20032;-72
2022/08/06 14:39:15;;;;;;;12.10;6.38;;;;;;;;;;5054728;28;20023;-72
2022/08/06 14:47:10;;;;;;;13.55;6.65;;;;;;;;;;5053848;28;20055;-71
2022/08/06 14:49:36;;;;;;;11.18;5.90;;;;;;;;;;5053842;28;20058;-72